Time;durP1;ratioP1;P1;durP2;ratioP2;P2;SDS_P1;SDS_P2;PMS_P1;PMS_P2;Temp;Humidity;BMP_temperature;BMP_pressure;BME280_temperature;BME280_humidity;BME280_pressure;Samples;Min_cycle;Max_cycle;Signal;HPM_P1;HPM_P2
2022/07/17 03:46:28;;;;;;;7.40;4.40;;;17.00;99.90;;;;;;5065049;28;20593;-64
2022/07/17 03:48:55;;;;;;;7.03;4.10;;;17.40;99.90;;;;;;5065406;28;20319;-64
2022/07/17 03:51:22;;;;;;;6.10;4.20;;;17.50;99.90;;;;;;5065483;28;20634;-64
2022/07/17 03:53:49;;;;;;;4.20;3.80;;;17.50;99.90;;;;;;5065216;28;20213;-65
2022/07/17 03:56:16;;;;;;;4.93;3.80;;;17.50;99.90;;;;;;5064940;28;20214;-65
2022/07/17 03:58:43;;;;;;;6.03;3.83;;;17.50;99.90;;;;;;5064915;28;20251;-64
2022/07/17 04:01:10;;;;;;;4.70;3.67;;;17.50;99.90;;;;;;5064993;28;20205;-64
2022/07/17 04:03:38;;;;;;;4.63;3.90;;;17.60;99.90;;;;;;5065299;28;20295;-64
2022/07/17 04:06:05;;;;;;;7.00;3.70;;;17.60;99.90;;;;;;5064853;28;20208;-65
2022/07/17 04:08:32;;;;;;;4.87;4.10;;;17.60;99.90;;;;;;5065172;28;20287;-65
2022/07/17 04:10:59;;;;;;;6.50;4.17;;;17.60;99.90;;;;;;5064944;28;20203;-65
2022/07/17 04:13:26;;;;;;;7.07;4.77;;;17.70;99.90;;;;;;5064804;28;20213;-65
2022/07/17 04:15:55;;;;;;;6.70;4.90;;;17.70;99.90;;;;;;5065153;28;20233;-63
2022/07/17 04:18:24;;;;;;;6.70;4.73;;;17.70;99.90;;;;;;5065099;28;20211;-65
2022/07/17 04:20:54;;;;;;;8.07;4.47;;;17.80;99.90;;;;;;5064642;28;20303;-65
2022/07/17 04:23:21;;;;;;;7.63;4.33;;;17.90;99.90;;;;;;5065183;28;20692;-64
2022/07/17 04:25:48;;;;;;;6.57;4.20;;;18.00;99.90;;;;;;5064759;28;20294;-63
2022/07/17 04:28:15;;;;;;;4.70;3.67;;;18.10;99.90;;;;;;5064999;28;20261;-64
2022/07/17 04:30:42;;;;;;;4.60;3.77;;;18.30;99.90;;;;;;5064705;28;20208;-64
2022/07/17 04:33:09;;;;;;;7.07;3.50;;;18.40;99.90;;;;;;5064836;28;20261;-64
2022/07/17 04:35:37;;;;;;;4.83;3.33;;;18.60;99.90;;;;;;5064365;28;20237;-64
2022/07/17 04:38:07;;;;;;;6.17;3.40;;;18.70;99.90;;;;;;5064773;27;20212;-64
2022/07/17 04:40:36;;;;;;;8.67;3.67;;;18.80;99.90;;;;;;5064833;28;20206;-65
2022/07/17 04:43:03;;;;;;;7.00;3.30;;;18.80;99.90;;;;;;5064598;27;20227;-67
2022/07/17 04:45:31;;;;;;;5.63;3.10;;;18.90;99.90;;;;;;5061336;27;20345;-63
2022/07/17 04:47:58;;;;;;;4.40;3.10;;;18.90;99.90;;;;;;5050857;28;20211;-66
2022/07/17 04:50:25;;;;;;;5.87;3.50;;;19.00;99.90;;;;;;5051225;28;20507;-65
2022/07/17 04:52:52;;;;;;;7.23;3.50;;;19.10;99.90;;;;;;5050538;28;20209;-65
2022/07/17 04:55:21;;;;;;;8.43;3.30;;;19.10;99.90;;;;;;5051133;28;20663;-64
2022/07/17 04:57:48;;;;;;;4.60;3.03;;;19.20;99.90;;;;;;5050733;28;20392;-65
2022/07/17 05:00:16;;;;;;;4.97;3.63;;;19.30;99.90;;;;;;5050740;28;20202;-64
2022/07/17 05:02:43;;;;;;;4.13;3.10;;;19.40;99.90;;;;;;5050790;28;20217;-65
2022/07/17 05:05:10;;;;;;;6.03;3.00;;;19.40;99.90;;;;;;5050704;28;20212;-64
2022/07/17 05:07:37;;;;;;;4.10;2.80;;;19.40;99.90;;;;;;5050752;28;20206;-66
2022/07/17 05:10:06;;;;;;;7.33;3.33;;;19.40;99.90;;;;;;5050438;28;20209;-64
2022/07/17 05:12:34;;;;;;;7.13;2.90;;;19.50;99.90;;;;;;5050777;28;20292;-64
2022/07/17 05:15:01;;;;;;;4.67;3.03;;;19.50;99.90;;;;;;5050691;28;20702;-65
2022/07/17 05:17:28;;;;;;;7.43;3.30;;;19.60;99.90;;;;;;5050776;28;20219;-65
2022/07/17 05:19:55;;;;;;;4.03;3.07;;;19.60;99.90;;;;;;5050310;28;20301;-65
2022/07/17 05:22:22;;;;;;;6.10;3.10;;;19.60;99.90;;;;;;5050548;28;20208;-64
2022/07/17 05:24:49;;;;;;;6.47;2.90;;;19.60;99.90;;;;;;5050665;28;20201;-65
2022/07/17 05:27:15;;;;;;;6.83;3.57;;;19.60;99.90;;;;;;5050789;28;20209;-65
2022/07/17 05:29:44;;;;;;;5.13;2.30;;;19.60;99.90;;;;;;5050600;28;20265;-65
2022/07/17 05:32:11;;;;;;;4.53;2.50;;;19.60;99.90;;;;;;5050743;28;20241;-66
2022/07/17 05:34:38;;;;;;;4.87;2.50;;;19.50;99.90;;;;;;5050375;28;20225;-66
2022/07/17 05:37:04;;;;;;;5.23;2.60;;;19.40;99.90;;;;;;5050238;28;20246;-65
2022/07/17 05:39:31;;;;;;;6.57;2.80;;;19.30;99.90;;;;;;5050133;28;20206;-65
2022/07/17 05:41:58;;;;;;;3.93;2.50;;;19.30;99.90;;;;;;5049890;28;20213;-63
2022/07/17 05:44:25;;;;;;;5.07;2.83;;;19.20;99.90;;;;;;5049829;28;20233;-64
2022/07/17 05:46:53;;;;;;;3.63;2.60;;;19.20;99.90;;;;;;5050031;28;20286;-64
2022/07/17 05:49:20;;;;;;;6.90;2.90;;;19.20;99.90;;;;;;5050010;28;20298;-66
2022/07/17 05:51:47;;;;;;;5.50;3.40;;;19.10;99.90;;;;;;5049667;28;20213;-64
2022/07/17 05:54:14;;;;;;;4.30;3.30;;;19.00;99.90;;;;;;5049881;28;20304;-65
2022/07/17 05:56:41;;;;;;;4.93;2.93;;;19.00;99.90;;;;;;5049854;28;20633;-65
2022/07/17 05:59:07;;;;;;;5.90;3.27;;;19.00;99.90;;;;;;5049008;28;20719;-64
2022/07/17 06:01:34;;;;;;;6.60;3.10;;;18.90;99.90;;;;;;5049554;28;20289;-65
2022/07/17 06:04:03;;;;;;;4.17;2.80;;;18.90;99.90;;;;;;5049579;28;20202;-64
2022/07/17 06:06:29;;;;;;;5.20;2.50;;;18.80;99.90;;;;;;5049840;28;20224;-64
2022/07/17 06:08:56;;;;;;;3.10;2.40;;;18.80;99.90;;;;;;5049314;28;20253;-64
2022/07/17 06:11:23;;;;;;;5.43;2.43;;;18.60;99.90;;;;;;5049619;28;20251;-65
2022/07/17 06:13:50;;;;;;;7.37;2.77;;;18.50;99.90;;;;;;5049758;28;20302;-66
2022/07/17 06:16:17;;;;;;;6.03;2.60;;;18.40;99.90;;;;;;5049325;28;20233;-65
2022/07/17 06:18:44;;;;;;;4.80;2.60;;;18.40;99.90;;;;;;5049428;28;20215;-66
2022/07/17 06:21:12;;;;;;;3.10;2.30;;;18.40;99.90;;;;;;5049725;28;20296;-64
2022/07/17 06:23:39;;;;;;;4.27;2.20;;;18.30;99.90;;;;;;5049568;28;20233;-64
2022/07/17 06:26:06;;;;;;;3.03;2.13;;;18.10;99.90;;;;;;5049692;28;20716;-66
2022/07/17 06:28:33;;;;;;;3.77;2.43;;;18.00;99.90;;;;;;5049506;28;20296;-67
2022/07/17 06:31:00;;;;;;;2.07;1.87;;;17.80;99.90;;;;;;5049766;28;20225;-65
2022/07/17 06:33:27;;;;;;;3.33;2.10;;;17.60;99.90;;;;;;5049659;28;20214;-65
2022/07/17 06:35:54;;;;;;;3.67;2.23;;;17.50;99.90;;;;;;5049025;28;20319;-65
2022/07/17 06:38:23;;;;;;;2.73;2.10;;;17.40;99.90;;;;;;5049450;28;20289;-64
2022/07/17 06:40:50;;;;;;;3.90;2.30;;;17.30;99.90;;;;;;5049461;28;20213;-65
2022/07/17 06:43:17;;;;;;;2.53;2.00;;;17.20;99.90;;;;;;5049348;28;20213;-64
2022/07/17 06:45:44;;;;;;;3.57;2.40;;;17.10;99.90;;;;;;5048944;28;20244;-65
2022/07/17 06:48:11;;;;;;;3.97;2.10;;;17.00;99.90;;;;;;5049346;28;20202;-63
2022/07/17 06:50:38;;;;;;;3.20;2.20;;;17.00;99.90;;;;;;5049101;28;20719;-65
2022/07/17 06:53:05;;;;;;;3.37;2.37;;;17.00;99.90;;;;;;5049147;28;20209;-65
2022/07/17 06:55:33;;;;;;;2.70;2.30;;;16.90;99.90;;;;;;5048905;28;20290;-65
2022/07/17 06:58:00;;;;;;;4.47;2.37;;;16.90;99.90;;;;;;5046679;28;20285;-65
2022/07/17 07:00:27;;;;;;;4.47;2.17;;;16.90;99.90;;;;;;5036792;27;20241;-68
2022/07/17 07:02:54;;;;;;;4.23;2.30;;;16.80;99.90;;;;;;5057925;27;20247;-65
2022/07/17 07:05:21;;;;;;;4.40;2.37;;;16.90;99.90;;;;;;5053493;27;20608;-65
2022/07/17 07:07:48;;;;;;;2.67;2.17;;;16.80;99.90;;;;;;5048734;28;20207;-65
2022/07/17 07:10:15;;;;;;;3.70;2.37;;;16.90;99.90;;;;;;5048255;28;20295;-67
2022/07/17 07:12:43;;;;;;;4.07;2.50;;;16.90;99.90;;;;;;5048352;27;20712;-66
2022/07/17 07:15:11;;;;;;;7.80;2.40;;;17.00;99.90;;;;;;5056452;27;20761;-67
2022/07/17 07:17:38;;;;;;;4.73;2.53;;;17.00;99.90;;;;;;5052690;28;20301;-64
2022/07/17 07:20:06;;;;;;;5.13;3.00;;;16.80;99.90;;;;;;5051404;27;20683;-65
2022/07/17 07:22:33;;;;;;;5.50;2.97;;;16.70;99.90;;;;;;5068110;28;20209;-68
2022/07/17 07:25:00;;;;;;;5.83;2.80;;;16.60;99.90;;;;;;5105995;27;20298;-65
2022/07/17 07:27:27;;;;;;;7.30;2.57;;;16.50;99.90;;;;;;5036970;28;20650;-68
2022/07/17 07:29:55;;;;;;;6.43;2.67;;;16.40;99.90;;;;;;5036200;28;20301;-68
2022/07/17 07:32:22;;;;;;;4.60;2.80;;;16.30;99.90;;;;;;5028749;28;20206;-66
2022/07/17 07:34:49;;;;;;;9.33;3.13;;;16.30;99.90;;;;;;5028664;28;20232;-69
2022/07/17 07:37:16;;;;;;;4.33;2.97;;;16.20;99.90;;;;;;5028441;28;20209;-68
2022/07/17 07:39:43;;;;;;;4.83;2.10;;;16.30;99.90;;;;;;5032772;28;20207;-69
2022/07/17 07:42:11;;;;;;;9.50;4.87;;;16.40;99.90;;;;;;5048202;28;20301;-68
2022/07/17 07:44:37;;;;;;;3.60;2.40;;;16.50;99.90;;;;;;5060626;27;20248;-68
2022/07/17 07:47:06;;;;;;;4.23;2.33;;;16.60;99.90;;;;;;5036799;28;20653;-68
2022/07/17 07:49:33;;;;;;;4.93;2.57;;;16.50;99.90;;;;;;5028587;28;20298;-67
2022/07/17 07:51:59;;;;;;;7.40;2.70;;;16.50;99.90;;;;;;5047706;28;20205;-69
2022/07/17 07:54:26;;;;;;;4.53;2.37;;;16.50;99.90;;;;;;5048125;28;20296;-70
2022/07/17 07:56:54;;;;;;;3.37;2.30;;;16.60;99.90;;;;;;5041296;28;20707;-67
2022/07/17 07:59:21;;;;;;;3.20;2.07;;;16.70;99.90;;;;;;5035499;27;20205;-68
2022/07/17 08:01:48;;;;;;;3.60;2.60;;;16.70;99.90;;;;;;5049101;27;20661;-69
2022/07/17 08:04:16;;;;;;;4.10;2.37;;;16.70;99.90;;;;;;5042857;28;20599;-67
2022/07/17 08:06:44;;;;;;;3.60;2.10;;;16.70;99.90;;;;;;5045401;28;20717;-68
2022/07/17 08:09:11;;;;;;;2.73;2.20;;;16.80;99.90;;;;;;5028266;28;20626;-69
2022/07/17 08:11:37;;;;;;;3.20;1.90;;;16.90;99.90;;;;;;5075022;27;20812;-68
2022/07/17 08:14:04;;;;;;;2.50;2.00;;;17.00;99.90;;;;;;5086315;27;20206;-68
2022/07/17 08:16:31;;;;;;;2.37;2.00;;;17.20;99.90;;;;;;5067289;28;20225;-66
2022/07/17 08:18:58;;;;;;;3.67;1.90;;;17.20;99.90;;;;;;5073424;27;20384;-68
2022/07/17 08:21:26;;;;;;;3.23;2.73;;;17.30;99.90;;;;;;5047828;28;20301;-68
2022/07/17 08:23:53;;;;;;;2.77;1.80;;;17.40;99.90;;;;;;5051115;28;20297;-69
2022/07/17 08:26:20;;;;;;;1.70;1.53;;;17.50;99.90;;;;;;5051186;28;20623;-68
2022/07/17 08:28:47;;;;;;;3.83;1.80;;;17.40;99.90;;;;;;5051499;28;20299;-68
2022/07/17 08:31:14;;;;;;;4.40;2.37;;;17.40;99.90;;;;;;5051509;28;20270;-67
2022/07/17 08:33:41;;;;;;;2.03;1.73;;;17.40;99.90;;;;;;5051179;28;20206;-68
2022/07/17 08:36:08;;;;;;;2.13;1.63;;;17.40;99.90;;;;;;5051213;28;20786;-70
2022/07/17 08:38:36;;;;;;;3.60;1.70;;;17.50;99.90;;;;;;5050230;28;20210;-67
2022/07/17 08:41:04;;;;;;;2.43;1.40;;;17.50;99.90;;;;;;5051331;28;20201;-70
2022/07/17 08:43:31;;;;;;;3.20;1.50;;;17.50;99.90;;;;;;5069462;27;20788;-68
2022/07/17 08:45:59;;;;;;;1.47;1.37;;;17.50;99.90;;;;;;5070719;28;20234;-67
2022/07/17 08:48:28;;;;;;;2.47;1.40;;;17.60;99.90;;;;;;5115128;27;20286;-69
2022/07/17 08:50:57;;;;;;;2.53;1.47;;;17.60;99.90;;;;;;5138540;27;20200;-67
2022/07/17 08:53:24;;;;;;;3.90;1.90;;;17.70;99.90;;;;;;5036283;28;20254;-68
2022/07/17 08:55:52;;;;;;;4.23;2.73;;;17.80;99.90;;;;;;5071047;27;20230;-68
2022/07/17 08:58:19;;;;;;;2.10;1.63;;;17.90;99.90;;;;;;5058040;27;20218;-69
2022/07/17 09:00:46;;;;;;;2.47;1.67;;;18.00;99.90;;;;;;5069668;27;20221;-68
2022/07/17 09:03:16;;;;;;;1.90;1.47;;;18.00;99.90;;;;;;5047525;28;20719;-67
2022/07/17 09:05:43;;;;;;;2.10;1.20;;;18.00;99.90;;;;;;5041980;27;20196;-68
2022/07/17 09:08:17;;;;;;;1.30;1.20;;;17.90;99.90;;;;;;5070745;28;20206;-69
2022/07/17 09:10:46;;;;;;;2.53;1.20;;;17.80;99.90;;;;;;5048141;28;20232;-69
2022/07/17 09:13:20;;;;;;;1.60;1.40;;;17.80;99.90;;;;;;5049103;28;20291;-70
2022/07/17 09:15:48;;;;;;;1.83;1.23;;;17.80;99.90;;;;;;5046683;28;20219;-69
2022/07/17 09:18:17;;;;;;;2.30;1.50;;;17.90;99.90;;;;;;5045709;27;20570;-71
2022/07/17 09:20:49;;;;;;;2.40;1.40;;;18.00;99.90;;;;;;5030563;28;20205;-69
2022/07/17 09:23:17;;;;;;;1.37;1.17;;;18.10;99.90;;;;;;5029364;28;20204;-70
2022/07/17 09:25:46;;;;;;;1.03;1.03;;;18.20;99.90;;;;;;5066572;27;20201;-69
2022/07/17 09:28:14;;;;;;;2.40;1.20;;;18.20;99.90;;;;;;5139761;27;20307;-68
2022/07/17 09:30:45;;;;;;;1.30;1.20;;;18.20;99.90;;;;;;5050683;28;20307;-68
2022/07/17 09:33:17;;;;;;;2.00;1.13;;;18.20;99.90;;;;;;5051254;27;20811;-69
2022/07/17 09:35:52;;;;;;;1.33;1.10;;;18.20;99.90;;;;;;5055334;27;20233;-68
2022/07/17 09:38:31;;;;;;;1.10;1.10;;;18.30;99.90;;;;;;5033614;28;20631;-68
2022/07/17 09:41:13;;;;;;;1.83;1.40;;;18.40;99.90;;;;;;5034025;28;20669;-69
2022/07/17 09:43:45;;;;;;;1.77;1.20;;;18.50;99.90;;;;;;5036863;28;20210;-69
2022/07/17 09:46:17;;;;;;;1.30;1.20;;;18.60;99.90;;;;;;5047681;28;20328;-69
2022/07/17 09:48:48;;;;;;;1.73;1.50;;;18.70;99.90;;;;;;5029462;28;20657;-70
2022/07/17 09:51:20;;;;;;;1.20;1.10;;;18.90;99.90;;;;;;5030367;28;20740;-68
2022/07/17 09:53:49;;;;;;;1.70;1.27;;;19.00;99.90;;;;;;5029482;28;20288;-70
2022/07/17 09:56:17;;;;;;;3.43;1.57;;;19.00;99.90;;;;;;5037191;28;20221;-68
2022/07/17 09:58:46;;;;;;;1.40;1.30;;;19.20;99.90;;;;;;5032045;28;20220;-68
2022/07/17 10:01:16;;;;;;;1.50;1.40;;;19.30;99.90;;;;;;5030480;28;20206;-68
2022/07/17 10:03:45;;;;;;;2.37;1.70;;;19.40;99.90;;;;;;5030324;28;20279;-67
2022/07/17 10:06:12;;;;;;;2.57;1.20;;;19.60;99.90;;;;;;5029663;28;20616;-68
2022/07/17 10:08:40;;;;;;;4.00;2.83;;;19.70;99.90;;;;;;5029158;28;20210;-70
2022/07/17 10:11:08;;;;;;;3.47;1.67;;;19.70;99.90;;;;;;5030326;28;20222;-70
2022/07/17 10:13:37;;;;;;;1.87;1.17;;;19.80;99.90;;;;;;5029907;28;20286;-69
2022/07/17 10:16:05;;;;;;;6.87;1.80;;;19.80;99.90;;;;;;5037877;28;20685;-68
2022/07/17 10:18:39;;;;;;;3.80;2.37;;;19.90;99.90;;;;;;5041749;28;20306;-72
2022/07/17 10:21:14;;;;;;;2.07;1.30;;;19.90;99.90;;;;;;5048899;28;20552;-70
2022/07/17 10:23:42;;;;;;;2.83;1.80;;;19.90;99.90;;;;;;5049656;28;20217;-68
2022/07/17 10:26:10;;;;;;;2.50;1.73;;;19.90;99.90;;;;;;5049955;28;20197;-68
2022/07/17 10:28:42;;;;;;;2.07;1.43;;;20.00;99.90;;;;;;5049824;28;20734;-69
2022/07/17 10:31:09;;;;;;;2.23;1.37;;;20.10;99.90;;;;;;5049418;28;20245;-68
2022/07/17 10:33:38;;;;;;;3.87;1.70;;;20.20;99.90;;;;;;5049746;28;20205;-72
2022/07/17 10:36:05;;;;;;;1.37;1.27;;;20.30;99.90;;;;;;5049652;28;20311;-69
2022/07/17 10:38:42;;;;;;;1.37;1.20;;;20.30;99.90;;;;;;5049594;28;20310;-71
2022/07/17 10:41:09;;;;;;;3.40;1.10;;;20.30;99.90;;;;;;5049738;28;20212;-73
2022/07/17 10:43:44;;;;;;;1.20;1.10;;;20.40;99.90;;;;;;5048745;28;20206;-68
2022/07/17 10:46:11;;;;;;;3.00;1.20;;;20.40;99.90;;;;;;5048948;28;20226;-70
2022/07/17 10:48:41;;;;;;;1.20;1.10;;;20.40;99.90;;;;;;5046167;28;20213;-70
2022/07/17 10:51:08;;;;;;;1.30;1.20;;;20.40;99.90;;;;;;5029315;28;20309;-72
2022/07/17 10:53:36;;;;;;;6.30;1.50;;;20.50;99.90;;;;;;5029243;28;20239;-67
2022/07/17 10:56:05;;;;;;;1.20;1.10;;;20.50;99.90;;;;;;5029186;28;20205;-69
2022/07/17 10:58:34;;;;;;;1.20;1.10;;;20.60;99.90;;;;;;5036953;28;20198;-69
2022/07/17 11:01:09;;;;;;;1.93;1.30;;;20.70;99.90;;;;;;5048912;28;20694;-73
2022/07/17 11:03:40;;;;;;;2.30;1.30;;;20.80;99.90;;;;;;5038191;28;20204;-69
2022/07/17 11:06:12;;;;;;;1.80;1.57;;;20.90;99.90;;;;;;5049283;28;20248;-68
2022/07/17 11:08:47;;;;;;;2.03;1.30;;;20.90;99.90;;;;;;5039395;28;20639;-69
2022/07/17 11:11:15;;;;;;;2.80;1.70;;;20.90;99.90;;;;;;5038322;28;20209;-69
2022/07/17 11:13:42;;;;;;;2.43;1.40;;;20.90;99.90;;;;;;5029058;28;20293;-69
2022/07/17 11:16:09;;;;;;;1.93;1.40;;;20.90;99.90;;;;;;5028727;28;20263;-68
2022/07/17 11:18:37;;;;;;;2.13;1.40;;;20.80;99.90;;;;;;5036302;28;20206;-69
2022/07/17 11:21:05;;;;;;;4.87;1.17;;;20.70;99.90;;;;;;5037007;28;20233;-70
2022/07/17 11:23:34;;;;;;;1.30;1.20;;;20.60;99.90;;;;;;5048795;28;20214;-68
2022/07/17 11:26:03;;;;;;;3.43;1.30;;;20.50;99.90;;;;;;5030615;28;20289;-68
2022/07/17 11:28:37;;;;;;;2.07;1.20;;;20.40;99.90;;;;;;5029168;28;20304;-68
2022/07/17 11:31:16;;;;;;;1.87;1.40;;;20.40;99.90;;;;;;5046666;27;20260;-69
2022/07/17 11:33:51;;;;;;;1.47;1.10;;;20.40;99.90;;;;;;5049069;28;20713;-68
2022/07/17 11:36:28;;;;;;;2.60;1.10;;;20.40;99.90;;;;;;5048655;28;20228;-70
2022/07/17 11:38:57;;;;;;;1.10;1.00;;;20.40;99.90;;;;;;5043767;28;20610;-72
2022/07/17 11:41:33;;;;;;;1.20;1.10;;;20.50;99.90;;;;;;5048979;28;20298;-69
2022/07/17 11:44:01;;;;;;;1.47;1.20;;;20.50;99.90;;;;;;5029265;28;20290;-67
2022/07/17 11:46:29;;;;;;;1.47;1.20;;;20.50;99.90;;;;;;5042376;28;20204;-69
2022/07/17 11:48:56;;;;;;;2.40;1.13;;;20.50;99.90;;;;;;5048623;28;20206;-67
2022/07/17 11:51:40;;;;;;;4.07;1.30;;;20.60;99.90;;;;;;5048476;28;20574;-68
2022/07/17 11:54:08;;;;;;;1.97;1.20;;;20.60;99.90;;;;;;5040778;28;20370;-70
2022/07/17 11:56:35;;;;;;;1.40;1.30;;;20.60;99.90;;;;;;5034550;28;20262;-69
2022/07/17 11:59:03;;;;;;;2.80;1.40;;;20.70;99.90;;;;;;5060904;27;20198;-69
2022/07/17 12:01:38;;;;;;;2.60;1.53;;;20.70;99.90;;;;;;5099984;27;20201;-71
2022/07/17 12:04:05;;;;;;;1.83;1.27;;;20.70;99.90;;;;;;5053165;27;20555;-71
2022/07/17 12:06:32;;;;;;;2.53;1.30;;;20.70;99.90;;;;;;5052179;28;20203;-69
2022/07/17 12:09:01;;;;;;;1.03;1.03;;;20.80;99.90;;;;;;5036625;28;20292;-68
2022/07/17 12:11:27;;;;;;;2.00;1.13;;;20.80;99.90;;;;;;5032084;28;20255;-69
2022/07/17 12:13:54;;;;;;;2.73;1.63;;;20.70;99.90;;;;;;5032248;28;20238;-70
2022/07/17 12:16:28;;;;;;;1.93;1.37;;;20.80;99.90;;;;;;5032276;28;20206;-70
2022/07/17 12:19:04;;;;;;;1.70;1.40;;;20.90;99.90;;;;;;5031773;28;20243;-66
2022/07/17 12:21:33;;;;;;;3.83;1.70;;;20.90;99.90;;;;;;5031457;28;20225;-67
2022/07/17 12:24:04;;;;;;;2.50;1.40;;;20.90;99.90;;;;;;5031466;28;20242;-66
2022/07/17 12:26:31;;;;;;;2.40;1.40;;;21.00;99.90;;;;;;5031532;28;20751;-68
2022/07/17 12:28:58;;;;;;;1.50;1.10;;;21.00;99.90;;;;;;5031033;28;20293;-66
2022/07/17 12:31:26;;;;;;;2.60;1.40;;;21.00;99.90;;;;;;5049786;28;20750;-68
2022/07/17 12:33:54;;;;;;;1.60;1.40;;;21.00;99.90;;;;;;5051231;28;20253;-68
2022/07/17 12:36:22;;;;;;;1.87;1.20;;;21.00;99.90;;;;;;5051064;28;20292;-67
2022/07/17 12:38:49;;;;;;;1.97;1.50;;;20.80;99.90;;;;;;5051682;28;20206;-67
2022/07/17 12:41:17;;;;;;;1.40;1.30;;;20.30;99.90;;;;;;5051343;28;20303;-68
2022/07/17 12:43:44;;;;;;;2.80;1.50;;;19.90;99.90;;;;;;5051499;28;20244;-67
2022/07/17 12:46:11;;;;;;;2.10;1.40;;;19.70;99.90;;;;;;5050839;28;20313;-68
2022/07/17 12:48:39;;;;;;;1.57;1.30;;;19.50;99.90;;;;;;5051210;28;20306;-68
2022/07/17 12:51:07;;;;;;;1.20;1.10;;;18.90;99.90;;;;;;5051325;28;20574;-67
2022/07/17 12:53:36;;;;;;;1.63;1.13;;;18.50;99.90;;;;;;5051274;28;20209;-67
2022/07/17 12:56:03;;;;;;;1.63;1.20;;;18.30;99.90;;;;;;5051008;28;20655;-66
2022/07/17 12:58:31;;;;;;;3.57;1.30;;;18.10;99.90;;;;;;5051099;28;20239;-66
2022/07/17 13:00:58;;;;;;;1.43;1.33;;;18.10;99.90;;;;;;5051497;27;20639;-68
2022/07/17 13:03:25;;;;;;;3.10;1.50;;;18.10;99.90;;;;;;5051671;28;20234;-67
2022/07/17 13:05:53;;;;;;;2.37;1.13;;;18.20;99.90;;;;;;5050631;28;20211;-66
2022/07/17 13:08:20;;;;;;;1.37;1.23;;;18.10;99.90;;;;;;5050412;28;20257;-69
2022/07/17 13:10:47;;;;;;;2.20;1.30;;;18.10;99.90;;;;;;5050955;28;20214;-67
2022/07/17 13:13:14;;;;;;;4.83;3.70;;;18.10;99.90;;;;;;5051130;28;20304;-68
2022/07/17 13:15:42;;;;;;;2.70;1.30;;;18.30;99.90;;;;;;5050714;28;20210;-67
2022/07/17 13:18:09;;;;;;;1.23;1.13;;;18.30;99.90;;;;;;5051005;28;20353;-68
2022/07/17 13:20:36;;;;;;;1.23;1.10;;;18.30;99.90;;;;;;5050705;28;20294;-67
2022/07/17 13:23:03;;;;;;;2.07;1.30;;;18.40;99.90;;;;;;5051143;27;20307;-68
2022/07/17 13:25:30;;;;;;;1.40;1.30;;;18.50;99.90;;;;;;5050931;27;20673;-67
2022/07/17 13:27:57;;;;;;;1.73;1.20;;;18.50;99.90;;;;;;5050712;28;20200;-68
2022/07/17 13:30:24;;;;;;;1.20;1.07;;;18.60;99.90;;;;;;5050688;28;20207;-68
2022/07/17 13:32:53;;;;;;;1.33;1.17;;;18.70;99.90;;;;;;5050436;28;20255;-67
2022/07/17 13:35:20;;;;;;;4.13;1.70;;;18.70;99.90;;;;;;5050577;28;20209;-68
2022/07/17 13:37:47;;;;;;;1.17;1.10;;;18.80;99.90;;;;;;5050597;28;20242;-69
2022/07/17 13:40:14;;;;;;;1.00;1.00;;;18.70;99.90;;;;;;5050932;28;20618;-68
2022/07/17 13:42:41;;;;;;;1.10;1.10;;;18.70;99.90;;;;;;5050307;28;20219;-68
2022/07/17 13:45:09;;;;;;;1.73;1.40;;;18.60;99.90;;;;;;5049951;28;20239;-69
2022/07/17 13:47:36;;;;;;;1.00;1.00;;;18.60;99.90;;;;;;5050058;28;20678;-69
2022/07/17 13:50:05;;;;;;;3.07;1.43;;;18.70;99.90;;;;;;5049826;28;20232;-70
2022/07/17 13:52:32;;;;;;;1.47;1.30;;;18.80;99.90;;;;;;5050233;28;20296;-69
2022/07/17 13:54:59;;;;;;;2.23;1.30;;;18.80;99.90;;;;;;5050454;28;20209;-69
2022/07/17 13:57:26;;;;;;;1.73;1.10;;;18.80;99.90;;;;;;5050213;28;20316;-67
2022/07/17 13:59:54;;;;;;;1.83;1.57;;;18.80;99.90;;;;;;5050110;28;20208;-67
2022/07/17 14:02:21;;;;;;;2.10;1.30;;;18.80;99.90;;;;;;5050272;28;20201;-68
2022/07/17 14:04:48;;;;;;;1.97;1.00;;;18.80;99.90;;;;;;5049815;28;20211;-68
2022/07/17 14:07:16;;;;;;;1.50;1.30;;;18.60;99.90;;;;;;5050051;28;20245;-67
2022/07/17 14:09:43;;;;;;;1.27;1.10;;;18.60;99.90;;;;;;5049628;28;20298;-68
2022/07/17 14:12:10;;;;;;;1.87;1.30;;;18.70;99.90;;;;;;5050014;28;20768;-68
2022/07/17 14:14:37;;;;;;;1.70;1.40;;;18.70;99.90;;;;;;5049778;28;20532;-68
2022/07/17 14:17:04;;;;;;;3.37;1.70;;;18.80;99.90;;;;;;5050232;28;20678;-68
2022/07/17 14:19:31;;;;;;;0.93;0.93;;;18.80;99.90;;;;;;5048813;28;20209;-68
2022/07/17 14:21:58;;;;;;;3.47;1.00;;;18.70;99.90;;;;;;5050107;27;20208;-68
2022/07/17 14:24:26;;;;;;;1.33;1.10;;;18.80;99.90;;;;;;5050238;28;20248;-68
2022/07/17 14:26:53;;;;;;;4.73;2.53;;;18.80;99.90;;;;;;5049934;28;20208;-70
2022/07/17 14:29:20;;;;;;;2.50;2.17;;;18.70;99.90;;;;;;5049714;28;20198;-66
2022/07/17 14:31:47;;;;;;;1.80;1.33;;;18.80;99.90;;;;;;5049771;27;20209;-67
2022/07/17 14:34:16;;;;;;;1.30;1.10;;;18.80;99.90;;;;;;5049493;28;20213;-68
2022/07/17 14:36:43;;;;;;;1.20;1.10;;;18.80;99.90;;;;;;5049666;28;20368;-68
2022/07/17 14:39:10;;;;;;;2.13;1.10;;;18.80;99.90;;;;;;5049863;28;20701;-70
2022/07/17 14:41:39;;;;;;;1.30;1.20;;;18.80;99.90;;;;;;5050042;28;20208;-69
2022/07/17 14:44:06;;;;;;;1.97;1.03;;;18.90;99.90;;;;;;5049886;28;20725;-70
2022/07/17 14:46:33;;;;;;;1.30;1.20;;;18.90;99.90;;;;;;5049641;28;20246;-67
2022/07/17 14:49:00;;;;;;;1.07;1.07;;;18.90;99.90;;;;;;5049695;28;20205;-70
2022/07/17 14:51:27;;;;;;;1.43;1.10;;;18.90;99.90;;;;;;5049117;28;20214;-66
2022/07/17 14:53:54;;;;;;;1.30;1.20;;;18.90;99.90;;;;;;5049358;28;20208;-66
2022/07/17 14:56:21;;;;;;;1.90;1.30;;;18.90;99.90;;;;;;5049712;28;20205;-67
2022/07/17 14:58:49;;;;;;;1.27;1.17;;;18.90;99.90;;;;;;5049785;28;20300;-68
2022/07/17 15:01:16;;;;;;;2.10;1.33;;;18.80;99.90;;;;;;5049675;28;20692;-70
2022/07/17 15:03:43;;;;;;;1.37;1.27;;;18.80;99.90;;;;;;5049126;28;20212;-68
2022/07/17 15:06:12;;;;;;;0.90;0.90;;;18.90;99.90;;;;;;5049618;28;20205;-67
2022/07/17 15:08:39;;;;;;;0.90;0.90;;;18.90;99.90;;;;;;5049124;28;20228;-67
2022/07/17 15:11:06;;;;;;;1.10;1.00;;;18.90;99.90;;;;;;5049537;28;20305;-68
2022/07/17 15:13:32;;;;;;;1.00;1.00;;;18.90;99.90;;;;;;5049045;28;20749;-67
2022/07/17 15:16:01;;;;;;;1.03;1.00;;;18.80;99.90;;;;;;5049154;28;20299;-67
2022/07/17 15:18:28;;;;;;;2.37;1.20;;;18.80;99.90;;;;;;5049033;28;20320;-68
2022/07/17 15:20:54;;;;;;;2.33;1.50;;;18.80;99.90;;;;;;5049263;28;20205;-68
2022/07/17 15:23:21;;;;;;;1.30;1.20;;;18.70;99.90;;;;;;5048966;28;20741;-68
2022/07/17 15:25:48;;;;;;;2.20;1.20;;;18.60;99.90;;;;;;5049439;28;20730;-67
2022/07/17 15:28:16;;;;;;;1.20;1.10;;;18.60;99.90;;;;;;5049396;28;20209;-67
2022/07/17 15:30:43;;;;;;;3.27;1.30;;;18.60;99.90;;;;;;5048942;28;20205;-68
2022/07/17 15:33:11;;;;;;;1.27;1.13;;;18.50;99.90;;;;;;5049127;28;20706;-67
2022/07/17 15:35:38;;;;;;;1.83;1.47;;;18.40;99.90;;;;;;5048874;28;20549;-67
2022/07/17 15:38:05;;;;;;;2.37;1.67;;;18.40;99.90;;;;;;5048700;28;20312;-67
2022/07/17 15:40:32;;;;;;;1.53;1.43;;;18.40;99.90;;;;;;5048843;28;20213;-69
2022/07/17 15:42:59;;;;;;;2.80;1.53;;;18.30;99.90;;;;;;5049100;28;20208;-67
2022/07/17 15:45:25;;;;;;;1.67;1.40;;;18.30;99.90;;;;;;5048598;28;20321;-67
2022/07/17 15:47:54;;;;;;;4.20;2.00;;;18.30;99.90;;;;;;5048997;28;20205;-68
2022/07/17 15:50:22;;;;;;;2.73;1.40;;;18.20;99.90;;;;;;5048434;28;20240;-68
2022/07/17 15:52:49;;;;;;;2.13;1.40;;;18.20;99.90;;;;;;5049174;28;20728;-68
2022/07/17 15:55:16;;;;;;;2.03;1.40;;;18.20;99.90;;;;;;5048852;28;20264;-68
2022/07/17 15:57:43;;;;;;;2.43;1.50;;;18.20;99.90;;;;;;5048658;28;20214;-69
2022/07/17 16:00:10;;;;;;;1.30;1.20;;;18.10;99.90;;;;;;5048318;28;20206;-68
2022/07/17 16:02:37;;;;;;;2.43;1.40;;;18.10;99.90;;;;;;5048484;28;20665;-68
2022/07/17 16:05:05;;;;;;;1.67;1.40;;;18.20;99.90;;;;;;5048871;28;20303;-69
2022/07/17 16:07:33;;;;;;;1.23;1.13;;;18.30;99.90;;;;;;5048557;28;20614;-67
2022/07/17 16:10:00;;;;;;;1.67;1.27;;;18.30;99.90;;;;;;5048784;28;20715;-70
2022/07/17 16:12:30;;;;;;;2.20;1.53;;;18.20;99.90;;;;;;5048579;28;20292;-70
2022/07/17 16:14:57;;;;;;;2.43;1.83;;;18.20;99.90;;;;;;5048058;28;20237;-68
2022/07/17 16:17:24;;;;;;;1.70;1.30;;;18.10;99.90;;;;;;5048335;28;20264;-68
2022/07/17 16:19:52;;;;;;;1.77;1.20;;;18.10;99.90;;;;;;5037240;28;20833;-66
2022/07/17 16:22:18;;;;;;;2.57;1.80;;;18.10;99.90;;;;;;5028515;28;20204;-70
2022/07/17 16:24:47;;;;;;;1.90;1.27;;;18.10;99.90;;;;;;5033095;28;20738;-69
2022/07/17 16:27:14;;;;;;;2.50;1.70;;;18.00;99.90;;;;;;5036032;28;20287;-67
2022/07/17 16:29:41;;;;;;;2.93;1.43;;;18.00;99.90;;;;;;5034388;28;20231;-67
2022/07/17 16:32:08;;;;;;;1.40;1.23;;;17.90;99.90;;;;;;5048181;28;20217;-68
2022/07/17 16:34:35;;;;;;;1.87;1.40;;;17.80;99.90;;;;;;5041849;28;20205;-68
2022/07/17 16:37:02;;;;;;;2.73;1.50;;;17.80;99.90;;;;;;5036887;28;20376;-67